Time;durP1;ratioP1;P1;durP2;ratioP2;P2;SDS_P1;SDS_P2;PMS_P1;PMS_P2;Temp;Humidity;BMP_temperature;BMP_pressure;BME280_temperature;BME280_humidity;BME280_pressure;Samples;Min_cycle;Max_cycle;Signal;HPM_P1;HPM_P2
2022/06/28 00:00:11;;;;;;;9.07;8.18;;;17.10;99.90;;;;;;5017816;28;20193;-74
2022/06/28 00:02:37;;;;;;;9.30;8.27;;;17.20;99.90;;;;;;5012413;28;20718;-72
2022/06/28 00:05:03;;;;;;;8.25;7.10;;;17.20;99.90;;;;;;5013312;28;20177;-73
2022/06/28 00:07:30;;;;;;;8.75;7.90;;;17.20;99.90;;;;;;5011994;28;20173;-73
2022/06/28 00:09:56;;;;;;;9.25;8.35;;;17.20;99.90;;;;;;5012985;28;20177;-73
2022/06/28 00:12:22;;;;;;;11.25;9.05;;;17.20;99.90;;;;;;5012872;28;20645;-74
2022/06/28 00:17:32;;;;;;;14.75;11.13;;;17.00;99.90;;;;;;5013287;28;20694;-73
2022/06/28 00:19:57;;;;;;;10.20;8.63;;;17.10;99.90;;;;;;5013090;28;20177;-74
2022/06/28 00:22:23;;;;;;;13.32;9.38;;;17.10;99.90;;;;;;5012747;28;20628;-73
2022/06/28 00:24:48;;;;;;;11.82;9.88;;;17.10;99.90;;;;;;5012850;28;20224;-73
2022/06/28 00:27:14;;;;;;;15.27;10.55;;;17.10;99.90;;;;;;5013029;28;20252;-73
2022/06/28 00:29:39;;;;;;;12.05;9.90;;;17.10;99.90;;;;;;5012600;28;20243;-74
2022/06/28 00:32:06;;;;;;;14.60;10.30;;;17.10;99.90;;;;;;5012576;28;20876;-73
2022/06/28 00:34:31;;;;;;;11.23;8.45;;;17.00;99.90;;;;;;5012327;28;20209;-73
2022/06/28 00:36:57;;;;;;;8.40;7.53;;;17.00;99.90;;;;;;5012787;28;20224;-74
2022/06/28 00:39:23;;;;;;;11.40;8.02;;;16.90;99.90;;;;;;5012690;28;20216;-74
2022/06/28 00:41:49;;;;;;;14.68;7.70;;;16.90;99.90;;;;;;5021041;28;20211;-75
2022/06/28 00:44:15;;;;;;;8.10;7.22;;;16.80;99.90;;;;;;5031929;28;20240;-75
2022/06/28 00:46:41;;;;;;;7.85;6.97;;;16.80;99.90;;;;;;5032436;28;20176;-75
2022/06/28 00:49:07;;;;;;;10.90;8.57;;;16.80;99.90;;;;;;5032497;28;20182;-75
2022/06/28 00:51:34;;;;;;;12.57;8.20;;;16.80;99.90;;;;;;5012933;28;20184;-75
2022/06/28 00:54:00;;;;;;;8.73;7.82;;;16.80;99.90;;;;;;5012181;28;20599;-75
2022/06/28 00:56:26;;;;;;;10.68;7.82;;;16.80;99.90;;;;;;5012325;28;20683;-75
2022/06/28 00:58:55;;;;;;;6.97;6.10;;;16.80;99.90;;;;;;5011473;28;20205;-74
2022/06/28 01:01:23;;;;;;;6.78;6.03;;;16.70;99.90;;;;;;5012160;28;20173;-75
2022/06/28 01:03:49;;;;;;;6.20;5.75;;;16.60;99.90;;;;;;5011757;28;20215;-75
2022/06/28 01:06:15;;;;;;;6.22;5.28;;;16.60;99.90;;;;;;5012125;28;20252;-74
2022/06/28 01:08:44;;;;;;;6.68;5.38;;;16.50;99.90;;;;;;5016844;28;20600;-75
2022/06/28 01:11:19;;;;;;;6.13;5.32;;;16.60;99.90;;;;;;5031790;28;20165;-74
2022/06/28 01:13:50;;;;;;;8.80;6.50;;;16.60;99.90;;;;;;5031517;28;20222;-73
2022/06/28 01:16:16;;;;;;;6.32;5.72;;;16.70;99.90;;;;;;5023024;28;20188;-74
2022/06/28 01:18:42;;;;;;;5.47;5.07;;;16.60;99.90;;;;;;5011928;28;20200;-75
2022/06/28 01:21:08;;;;;;;6.05;5.55;;;16.50;99.90;;;;;;5012031;28;20207;-73
2022/06/28 01:23:34;;;;;;;5.10;4.80;;;16.50;99.90;;;;;;5011387;28;20236;-74
2022/06/28 01:26:00;;;;;;;5.55;5.18;;;16.50;99.90;;;;;;5011808;28;20178;-75
2022/06/28 01:28:27;;;;;;;5.82;5.43;;;16.50;99.90;;;;;;5011874;28;20181;-75
2022/06/28 01:30:53;;;;;;;5.38;4.90;;;16.40;99.90;;;;;;5011537;28;20189;-74
2022/06/28 01:33:19;;;;;;;5.28;4.78;;;16.50;99.90;;;;;;5011582;28;20268;-74
2022/06/28 01:35:44;;;;;;;5.60;5.10;;;16.40;99.90;;;;;;5011854;28;20588;-74
2022/06/28 01:38:10;;;;;;;5.25;4.88;;;16.50;99.90;;;;;;5011687;28;20692;-74
2022/06/28 01:40:36;;;;;;;5.22;4.93;;;16.50;99.90;;;;;;5011680;28;20194;-74
2022/06/28 01:43:02;;;;;;;6.30;5.70;;;16.40;99.90;;;;;;5011369;28;20288;-74
2022/06/28 01:45:29;;;;;;;6.72;5.78;;;16.40;99.90;;;;;;5011857;28;20585;-74
2022/06/28 01:47:55;;;;;;;6.97;6.18;;;16.50;99.90;;;;;;5011533;28;20190;-74
2022/06/28 01:50:21;;;;;;;7.30;6.70;;;16.60;99.90;;;;;;5011615;28;20236;-74
2022/06/28 01:52:46;;;;;;;7.13;6.53;;;16.60;99.90;;;;;;5011454;28;20260;-75
2022/06/28 01:55:12;;;;;;;6.47;5.97;;;16.60;99.90;;;;;;5023159;28;20176;-75
2022/06/28 01:57:39;;;;;;;5.70;5.30;;;16.40;99.90;;;;;;5015426;28;20187;-75
2022/06/28 02:00:06;;;;;;;5.70;5.30;;;16.30;99.90;;;;;;5036350;28;20682;-75
2022/06/28 02:02:32;;;;;;;5.90;5.40;;;16.20;99.90;;;;;;5027370;28;20188;-75
2022/06/28 02:04:58;;;;;;;5.57;5.18;;;16.10;99.90;;;;;;5029313;28;20200;-76
2022/06/28 02:07:24;;;;;;;6.25;5.68;;;16.20;99.90;;;;;;5024705;28;20571;-76
2022/06/28 02:09:49;;;;;;;5.65;5.15;;;16.20;99.90;;;;;;5033186;28;20189;-75
2022/06/28 02:12:15;;;;;;;6.40;5.90;;;16.20;99.90;;;;;;5025119;28;20179;-74
2022/06/28 02:14:40;;;;;;;7.50;6.90;;;16.40;99.90;;;;;;5030028;28;20283;-75
2022/06/28 02:17:06;;;;;;;7.78;7.18;;;16.40;99.90;;;;;;5026214;28;20189;-75
2022/06/28 02:19:32;;;;;;;8.00;7.32;;;16.50;99.90;;;;;;5027147;28;20217;-75
2022/06/28 02:21:57;;;;;;;6.85;6.22;;;16.40;99.90;;;;;;5032536;28;20172;-75
2022/06/28 02:24:23;;;;;;;7.60;6.22;;;16.30;99.90;;;;;;5024315;28;20271;-75
2022/06/28 02:26:48;;;;;;;7.63;6.60;;;16.20;99.90;;;;;;5022350;28;20560;-75
2022/06/28 02:29:14;;;;;;;6.47;5.97;;;16.10;99.90;;;;;;5023964;28;20200;-75
2022/06/28 02:31:40;;;;;;;7.95;7.30;;;16.10;99.90;;;;;;5022614;28;20204;-75
2022/06/28 02:34:05;;;;;;;8.05;6.40;;;16.10;99.90;;;;;;5022482;28;20200;-75
2022/06/28 02:41:41;;;;;;;6.53;6.07;;;16.00;99.90;;;;;;5029430;28;20177;-75
2022/06/28 02:44:07;;;;;;;6.32;5.82;;;16.00;99.90;;;;;;5029626;28;20219;-75
2022/06/28 02:46:33;;;;;;;6.10;5.70;;;16.00;99.90;;;;;;5034104;28;20176;-75
2022/06/28 02:48:59;;;;;;;7.13;6.53;;;16.00;99.90;;;;;;5032771;28;20176;-75
2022/06/28 02:51:24;;;;;;;6.70;6.03;;;16.00;99.90;;;;;;5032559;28;20230;-75
2022/06/28 02:53:52;;;;;;;5.93;5.53;;;16.00;99.90;;;;;;5031615;28;20227;-75
2022/06/28 02:56:18;;;;;;;8.18;6.30;;;16.10;99.90;;;;;;5031742;28;20315;-75
2022/06/28 02:58:44;;;;;;;7.03;6.53;;;16.00;99.90;;;;;;5033693;28;20207;-74
2022/06/28 03:01:10;;;;;;;8.15;6.22;;;16.00;99.90;;;;;;5033940;28;20277;-74
2022/06/28 03:03:35;;;;;;;5.93;5.43;;;15.90;99.90;;;;;;5032134;28;20200;-75
2022/06/28 03:06:01;;;;;;;6.25;5.75;;;16.00;99.90;;;;;;5022864;28;20177;-76
2022/06/28 03:08:27;;;;;;;6.90;6.03;;;15.90;99.90;;;;;;5014032;28;20667;-74
2022/06/28 03:10:53;;;;;;;7.82;7.22;;;15.90;99.90;;;;;;5014514;28;20195;-74
2022/06/28 03:13:18;;;;;;;8.07;7.40;;;16.00;99.90;;;;;;5013922;28;20193;-74
2022/06/28 03:15:44;;;;;;;8.75;7.95;;;16.10;99.90;;;;;;5014405;28;20681;-74
2022/06/28 03:18:09;;;;;;;8.38;7.57;;;16.10;99.90;;;;;;5013846;28;20165;-74
2022/06/28 03:20:35;;;;;;;9.27;8.48;;;16.00;99.90;;;;;;5030860;28;20643;-74
2022/06/28 03:23:01;;;;;;;13.18;8.70;;;16.00;99.90;;;;;;5033041;28;20266;-74
2022/06/28 03:25:26;;;;;;;9.52;8.60;;;16.00;99.90;;;;;;5033860;28;20542;-74
2022/06/28 03:27:52;;;;;;;8.70;7.43;;;16.00;99.90;;;;;;5027885;28;20723;-73
2022/06/28 03:30:18;;;;;;;8.27;7.22;;;15.90;99.90;;;;;;5013815;28;20554;-73
2022/06/28 03:32:43;;;;;;;9.15;8.27;;;15.70;99.90;;;;;;5013705;28;20173;-73
2022/06/28 03:35:09;;;;;;;8.95;8.07;;;15.80;99.90;;;;;;5014052;28;20178;-73
2022/06/28 03:37:36;;;;;;;9.10;8.30;;;15.80;99.90;;;;;;5034828;28;20180;-73
2022/06/28 03:40:02;;;;;;;8.63;7.88;;;15.80;99.90;;;;;;5025580;28;20185;-73
2022/06/28 03:42:28;;;;;;;8.93;8.18;;;15.80;99.90;;;;;;5041508;28;20173;-73
2022/06/28 03:44:53;;;;;;;9.32;8.43;;;15.90;99.90;;;;;;5044864;28;20215;-72
2022/06/28 03:47:19;;;;;;;9.15;8.35;;;15.90;99.90;;;;;;5038036;28;20202;-72
2022/06/28 03:49:47;;;;;;;9.23;8.48;;;15.90;99.90;;;;;;5033477;28;20670;-73
2022/06/28 03:52:13;;;;;;;9.35;8.10;;;15.80;99.90;;;;;;5033312;28;20169;-73
2022/06/28 03:54:39;;;;;;;8.55;7.75;;;15.80;99.90;;;;;;5032761;28;20196;-73
2022/06/28 03:57:05;;;;;;;8.23;7.50;;;15.80;99.90;;;;;;5035741;28;20570;-73
2022/06/28 03:59:30;;;;;;;8.68;7.97;;;15.80;99.90;;;;;;5030378;28;20275;-73
2022/06/28 04:01:56;;;;;;;7.78;7.07;;;15.70;99.90;;;;;;5013145;28;20212;-73
2022/06/28 04:04:22;;;;;;;9.95;9.00;;;15.80;99.90;;;;;;5018220;28;20208;-73
2022/06/28 04:06:47;;;;;;;10.27;9.27;;;15.90;99.90;;;;;;5039734;28;20200;-74
2022/06/28 04:09:13;;;;;;;10.27;9.38;;;16.00;99.90;;;;;;5027321;28;20211;-73
2022/06/28 04:11:39;;;;;;;9.93;9.02;;;16.00;99.90;;;;;;5019253;28;20268;-73
2022/06/28 04:14:04;;;;;;;10.15;9.27;;;16.00;99.90;;;;;;5026379;28;20307;-73
2022/06/28 04:16:30;;;;;;;10.23;9.32;;;16.00;99.90;;;;;;5023406;28;20573;-73
2022/06/28 04:18:56;;;;;;;10.05;9.05;;;16.00;99.90;;;;;;5018522;28;20214;-74
2022/06/28 04:21:21;;;;;;;10.30;9.38;;;16.10;99.90;;;;;;5026936;28;20204;-72
2022/06/28 04:23:47;;;;;;;11.60;10.50;;;16.10;99.90;;;;;;5028638;28;20192;-72
2022/06/28 04:26:13;;;;;;;11.60;10.23;;;16.20;99.90;;;;;;5021039;28;20186;-72
2022/06/28 04:28:39;;;;;;;10.40;9.35;;;16.20;99.90;;;;;;5021717;28;20173;-72
2022/06/28 04:31:05;;;;;;;10.65;9.55;;;16.20;99.90;;;;;;5022132;28;20569;-71
2022/06/28 04:33:31;;;;;;;11.48;8.98;;;16.30;99.90;;;;;;5019344;28;20202;-71
2022/06/28 04:35:57;;;;;;;10.25;9.45;;;16.30;99.90;;;;;;5019897;28;20264;-73
2022/06/28 04:38:23;;;;;;;9.23;8.57;;;16.40;99.90;;;;;;5027131;28;20189;-73
2022/06/28 04:40:49;;;;;;;10.30;9.25;;;16.40;99.90;;;;;;5024091;28;20187;-74
2022/06/28 04:43:14;;;;;;;9.55;8.75;;;16.50;99.90;;;;;;5028367;28;20208;-74
2022/06/28 04:45:40;;;;;;;9.23;8.30;;;16.50;99.90;;;;;;5025858;28;20581;-74
2022/06/28 04:48:06;;;;;;;9.90;9.10;;;16.50;99.90;;;;;;5023812;28;20709;-73
2022/06/28 04:50:32;;;;;;;8.60;7.72;;;16.60;99.90;;;;;;5021067;28;20714;-74
2022/06/28 04:52:58;;;;;;;8.15;6.50;;;16.50;99.90;;;;;;5028554;28;20215;-74
2022/06/28 04:55:24;;;;;;;6.75;6.25;;;16.50;99.90;;;;;;5023768;28;20550;-74
2022/06/28 04:57:50;;;;;;;8.48;7.78;;;16.50;99.90;;;;;;5021273;28;20188;-74
2022/06/28 05:00:16;;;;;;;9.88;8.98;;;16.60;99.90;;;;;;5021705;28;20188;-74
2022/06/28 05:02:41;;;;;;;9.02;8.23;;;16.70;99.90;;;;;;5014712;28;20195;-74
2022/06/28 05:05:08;;;;;;;8.75;7.20;;;16.70;99.90;;;;;;5022246;28;20276;-75
2022/06/28 05:07:34;;;;;;;8.88;8.18;;;16.80;99.90;;;;;;5013315;28;20217;-74
2022/06/28 05:10:01;;;;;;;9.45;7.53;;;16.80;99.90;;;;;;5012491;28;20264;-74
2022/06/28 05:12:27;;;;;;;7.15;6.65;;;16.90;99.90;;;;;;5012148;28;20213;-75
2022/06/28 05:14:52;;;;;;;7.45;6.85;;;16.80;99.90;;;;;;5012926;28;20680;-74
2022/06/28 05:17:18;;;;;;;7.07;6.38;;;16.90;99.90;;;;;;5012934;28;20177;-74
2022/06/28 05:19:44;;;;;;;7.90;7.30;;;16.80;99.90;;;;;;5012475;28;20189;-74
2022/06/28 05:22:10;;;;;;;9.40;8.60;;;16.90;99.90;;;;;;5014855;28;20698;-75
2022/06/28 05:24:37;;;;;;;8.20;7.50;;;17.10;99.90;;;;;;5031816;28;20230;-74
2022/06/28 05:27:03;;;;;;;8.48;7.75;;;17.20;99.90;;;;;;5032294;28;20222;-73
2022/06/28 05:29:29;;;;;;;7.70;7.10;;;17.30;99.90;;;;;;5032114;28;20172;-74
2022/06/28 05:31:55;;;;;;;8.02;7.40;;;17.30;99.90;;;;;;5025575;28;20189;-74
2022/06/28 05:34:21;;;;;;;7.50;6.82;;;17.30;99.90;;;;;;5021724;28;20212;-74
2022/06/28 05:36:47;;;;;;;6.78;6.25;;;17.50;99.90;;;;;;5023849;28;20181;-75
2022/06/28 05:39:12;;;;;;;8.05;6.30;;;17.50;99.90;;;;;;5030089;28;20188;-74
2022/06/28 05:41:41;;;;;;;7.20;6.65;;;17.50;99.90;;;;;;5024599;28;20649;-74
2022/06/28 05:44:08;;;;;;;6.60;6.07;;;17.50;99.90;;;;;;5031063;28;20204;-75
2022/06/28 05:46:33;;;;;;;5.25;4.88;;;17.30;99.90;;;;;;5031060;28;20203;-75
2022/06/28 05:48:59;;;;;;;6.55;5.95;;;17.40;99.90;;;;;;5025256;28;20711;-75
2022/06/28 05:51:25;;;;;;;5.43;5.03;;;17.60;99.90;;;;;;5033663;28;20181;-74
2022/06/28 05:53:51;;;;;;;6.50;6.00;;;17.60;99.90;;;;;;5035075;28;20619;-74
2022/06/28 05:56:17;;;;;;;6.80;6.20;;;17.80;99.90;;;;;;5029973;28;20568;-75
2022/06/28 05:58:42;;;;;;;7.97;7.25;;;17.90;99.90;;;;;;5038223;28;20242;-75
2022/06/28 06:01:08;;;;;;;7.35;5.80;;;18.00;99.90;;;;;;5035380;28;20648;-74
2022/06/28 06:03:33;;;;;;;5.93;5.45;;;18.00;99.90;;;;;;5022647;28;20262;-73
2022/06/28 06:05:59;;;;;;;7.10;6.60;;;18.20;99.90;;;;;;5026638;28;20185;-74
2022/06/28 06:08:25;;;;;;;7.18;6.57;;;18.40;99.90;;;;;;5025178;28;20528;-74
2022/06/28 06:10:51;;;;;;;5.65;5.13;;;18.40;99.90;;;;;;5027323;28;20168;-74
2022/06/28 06:13:17;;;;;;;5.57;4.97;;;18.30;99.90;;;;;;5022060;28;20213;-75
2022/06/28 06:15:43;;;;;;;5.18;4.65;;;18.30;99.90;;;;;;5034391;28;20189;-76
2022/06/28 06:18:09;;;;;;;6.05;5.55;;;18.20;99.90;;;;;;5026187;28;20551;-76
2022/06/28 06:20:35;;;;;;;7.03;6.43;;;18.40;99.90;;;;;;5024822;28;20174;-75
2022/06/28 06:23:00;;;;;;;6.18;5.50;;;18.60;99.90;;;;;;5027078;28;20229;-75
2022/06/28 06:25:26;;;;;;;6.95;6.32;;;18.70;99.90;;;;;;5030523;28;20173;-75
2022/06/28 06:27:52;;;;;;;5.80;5.40;;;18.60;99.90;;;;;;5023633;28;20199;-75
2022/06/28 06:30:17;;;;;;;6.90;5.68;;;18.70;99.90;;;;;;5027625;28;20320;-75
2022/06/28 06:32:43;;;;;;;7.30;6.70;;;18.80;99.90;;;;;;5023985;28;20180;-76
2022/06/28 06:35:09;;;;;;;6.68;6.10;;;19.00;99.90;;;;;;5023868;28;20840;-75
2022/06/28 06:37:35;;;;;;;5.55;5.07;;;19.10;99.90;;;;;;5033943;28;20172;-74
2022/06/28 06:40:02;;;;;;;6.63;5.85;;;19.10;99.90;;;;;;5040066;28;20759;-75
2022/06/28 06:42:27;;;;;;;6.05;5.00;;;19.30;99.90;;;;;;5034526;28;20182;-75
2022/06/28 06:44:54;;;;;;;5.68;5.28;;;19.50;99.90;;;;;;5029795;28;20290;-75
2022/06/28 06:47:20;;;;;;;7.03;5.35;;;19.80;99.90;;;;;;5017812;28;20182;-78
2022/06/28 06:49:46;;;;;;;5.00;4.70;;;19.90;99.90;;;;;;5014751;28;20181;-78
2022/06/28 06:52:11;;;;;;;4.97;4.47;;;19.90;99.90;;;;;;5029820;28;20216;-78
2022/06/28 06:54:37;;;;;;;5.30;4.85;;;20.20;99.90;;;;;;5033072;28;20199;-78
2022/06/28 06:57:03;;;;;;;9.88;6.38;;;20.30;99.90;;;;;;5034234;28;20260;-78
2022/06/28 06:59:29;;;;;;;5.10;4.80;;;20.70;99.90;;;;;;5029371;28;20238;-78
2022/06/28 07:01:54;;;;;;;6.82;4.10;;;20.40;99.90;;;;;;5032244;28;20263;-76
2022/06/28 07:04:20;;;;;;;4.05;3.75;;;20.90;99.90;;;;;;5020223;28;20239;-77
2022/06/28 07:06:45;;;;;;;3.65;3.28;;;21.20;99.90;;;;;;5018891;28;20180;-75
2022/06/28 07:09:11;;;;;;;6.00;4.07;;;21.50;99.90;;;;;;5027138;28;20272;-77
2022/06/28 07:11:37;;;;;;;3.90;3.70;;;21.20;99.90;;;;;;5039886;28;20184;-77
2022/06/28 07:14:03;;;;;;;5.88;4.18;;;21.20;99.90;;;;;;5041843;28;20210;-76
2022/06/28 07:16:29;;;;;;;5.55;4.28;;;21.10;99.90;;;;;;5042511;28;20186;-77
2022/06/28 07:18:55;;;;;;;5.63;4.60;;;20.80;99.90;;;;;;5043463;28;20172;-77
2022/06/28 07:21:20;;;;;;;4.50;4.15;;;20.70;99.90;;;;;;5013420;28;20197;-77
2022/06/28 07:23:46;;;;;;;6.70;4.30;;;20.60;99.90;;;;;;5011585;28;20209;-76
2022/06/28 07:26:12;;;;;;;4.55;4.03;;;20.50;99.90;;;;;;5012900;28;20711;-76
2022/06/28 07:28:38;;;;;;;5.13;4.70;;;20.50;99.90;;;;;;5018871;28;20203;-76
2022/06/28 07:31:04;;;;;;;5.60;5.07;;;20.40;99.90;;;;;;5023403;28;20187;-76
2022/06/28 07:33:30;;;;;;;4.78;4.38;;;20.60;99.90;;;;;;5032830;28;20675;-75
2022/06/28 07:35:56;;;;;;;8.63;5.60;;;20.90;99.90;;;;;;5029615;28;20221;-76
2022/06/28 07:38:22;;;;;;;5.60;5.20;;;21.30;99.90;;;;;;5024135;28;20183;-76
2022/06/28 07:40:47;;;;;;;7.30;6.28;;;21.50;99.90;;;;;;5023926;28;20565;-76
2022/06/28 07:43:13;;;;;;;5.57;5.18;;;21.80;99.90;;;;;;5029371;28;20204;-78
2022/06/28 07:45:40;;;;;;;6.07;5.68;;;22.10;99.90;;;;;;5049001;28;20186;-74
2022/06/28 07:48:07;;;;;;;6.47;5.97;;;22.40;99.90;;;;;;5025169;28;20267;-76
2022/06/28 07:53:17;;;;;;;4.97;4.57;;;22.70;99.90;;;;;;5026593;28;20212;-75
2022/06/28 07:55:43;;;;;;;5.82;4.63;;;22.70;99.90;;;;;;5018012;28;20660;-76
2022/06/28 07:58:09;;;;;;;4.28;3.97;;;22.70;99.90;;;;;;5019093;28;20184;-76
2022/06/28 08:00:34;;;;;;;11.52;4.80;;;22.70;99.90;;;;;;5012880;28;20180;-74
2022/06/28 08:03:00;;;;;;;4.03;3.63;;;22.90;99.90;;;;;;5012351;28;20691;-75
2022/06/28 08:05:26;;;;;;;4.10;3.90;;;23.10;99.90;;;;;;5018449;28;20188;-74
2022/06/28 08:07:52;;;;;;;4.60;4.20;;;23.50;99.90;;;;;;5018139;28;20181;-76
2022/06/28 08:10:18;;;;;;;5.40;4.32;;;23.70;99.90;;;;;;5032672;28;20269;-73
2022/06/28 08:12:44;;;;;;;6.55;4.15;;;23.90;99.90;;;;;;5041486;28;20181;-71
2022/06/28 08:15:10;;;;;;;5.72;4.20;;;24.00;99.90;;;;;;5020225;28;20185;-71
2022/06/28 08:17:36;;;;;;;4.70;4.30;;;24.00;99.90;;;;;;5012281;28;20180;-72
2022/06/28 08:20:02;;;;;;;4.47;4.07;;;24.10;99.90;;;;;;5012548;28;20170;-71
2022/06/28 08:22:28;;;;;;;3.63;3.42;;;24.10;99.90;;;;;;5012089;28;20177;-71
2022/06/28 08:24:53;;;;;;;3.95;3.65;;;24.30;99.90;;;;;;5012337;28;20270;-71
2022/06/28 08:27:19;;;;;;;4.13;3.58;;;24.60;99.90;;;;;;5012395;28;20171;-71
2022/06/28 08:29:46;;;;;;;4.03;3.30;;;24.90;99.90;;;;;;5012300;28;20180;-72
2022/06/28 08:32:13;;;;;;;3.53;3.22;;;25.50;99.90;;;;;;5014746;28;20191;-72
2022/06/28 08:34:39;;;;;;;3.38;3.08;;;26.00;99.90;;;;;;5033146;28;20187;-71
2022/06/28 08:37:05;;;;;;;3.88;3.58;;;26.20;99.90;;;;;;5031351;28;20259;-71
2022/06/28 08:39:31;;;;;;;4.15;3.47;;;26.30;99.90;;;;;;5028428;28;20648;-72
2022/06/28 08:42:03;;;;;;;3.83;3.22;;;26.50;99.90;;;;;;5015404;28;20567;-72
2022/06/28 08:44:32;;;;;;;3.63;3.28;;;26.70;99.90;;;;;;5029813;28;20764;-73
2022/06/28 08:46:59;;;;;;;4.15;3.40;;;26.70;99.90;;;;;;5031855;28;20211;-72
2022/06/28 08:49:34;;;;;;;3.60;3.40;;;26.80;99.90;;;;;;5019841;28;20295;-73
2022/06/28 08:52:03;;;;;;;3.88;3.58;;;26.80;99.90;;;;;;5011771;28;20180;-72
2022/06/28 08:54:29;;;;;;;5.70;3.70;;;27.30;99.90;;;;;;5011906;28;20236;-72
2022/06/28 08:56:55;;;;;;;3.58;2.95;;;27.50;99.90;;;;;;5012124;28;20180;-72
2022/06/28 08:59:22;;;;;;;3.67;3.42;;;27.20;99.90;;;;;;5012034;28;20235;-72
2022/06/28 09:01:49;;;;;;;3.78;3.47;;;26.90;99.90;;;;;;5011776;28;20659;-72
2022/06/28 09:04:15;;;;;;;4.03;3.55;;;26.40;99.90;;;;;;5012560;28;20205;-72
2022/06/28 09:06:41;;;;;;;5.90;3.50;;;26.00;99.90;;;;;;5027377;28;20185;-71
2022/06/28 09:09:06;;;;;;;3.42;3.13;;;25.70;99.90;;;;;;5026382;28;20211;-72
2022/06/28 09:11:40;;;;;;;3.58;3.00;;;25.50;99.90;;;;;;5022337;28;20209;-71
2022/06/28 09:14:29;;;;;;;3.10;2.88;;;25.40;99.90;;;;;;5021797;28;20187;-71
2022/06/28 09:16:56;;;;;;;3.28;2.67;;;25.40;99.90;;;;;;5024434;28;20201;-72
2022/06/28 09:19:37;;;;;;;2.97;2.72;;;25.60;99.90;;;;;;5035241;28;20180;-72
2022/06/28 09:22:04;;;;;;;3.38;3.00;;;26.00;99.90;;;;;;5025974;28;20267;-71
2022/06/28 09:24:31;;;;;;;3.17;2.88;;;26.30;99.90;;;;;;5025215;28;20275;-71
2022/06/28 09:27:07;;;;;;;3.20;2.90;;;27.20;99.90;;;;;;5027956;28;20173;-72
2022/06/28 09:29:49;;;;;;;3.42;3.10;;;27.90;99.90;;;;;;5023088;28;20177;-72
2022/06/28 09:32:15;;;;;;;3.67;2.80;;;28.60;99.90;;;;;;5031114;28;20184;-72
2022/06/28 09:34:54;;;;;;;2.90;2.50;;;29.20;99.90;;;;;;5035118;28;20199;-71
2022/06/28 09:37:51;;;;;;;3.38;2.40;;;29.40;99.90;;;;;;5035883;28;20179;-72
2022/06/28 09:40:29;;;;;;;2.60;2.40;;;29.50;99.90;;;;;;5035433;28;20197;-71
2022/06/28 09:43:06;;;;;;;3.35;3.15;;;29.40;99.90;;;;;;5043291;28;20179;-71
2022/06/28 09:45:32;;;;;;;4.03;2.65;;;29.00;99.30;;;;;;5026510;28;20252;-71
2022/06/28 09:47:58;;;;;;;3.08;2.75;;;28.60;99.90;;;;;;5027110;28;20187;-71
2022/06/28 09:50:23;;;;;;;2.95;2.70;;;28.30;99.90;;;;;;5028447;28;20177;-72
2022/06/28 09:52:50;;;;;;;2.30;2.20;;;28.50;99.90;;;;;;5030114;28;20252;-71
2022/06/28 09:55:18;;;;;;;2.53;2.42;;;29.10;99.90;;;;;;5024812;28;20231;-71
2022/06/28 09:57:45;;;;;;;2.35;2.15;;;29.80;99.80;;;;;;5020412;28;20177;-71
2022/06/28 10:00:13;;;;;;;2.10;2.00;;;30.30;96.60;;;;;;5022956;28;20246;-72
2022/06/28 10:02:41;;;;;;;3.30;1.88;;;30.50;94.60;;;;;;5023554;28;20176;-72
2022/06/28 10:05:08;;;;;;;1.98;1.88;;;31.00;92.00;;;;;;5024290;28;20207;-72
2022/06/28 10:07:34;;;;;;;3.45;1.90;;;31.00;88.30;;;;;;5023779;28;20309;-71
2022/06/28 10:10:01;;;;;;;2.13;2.03;;;31.60;89.00;;;;;;5021094;28;20231;-71
2022/06/28 10:15:24;;;;;;;2.28;2.17;;;32.80;85.50;;;;;;5021901;28;20176;-72
2022/06/28 10:17:53;;;;;;;2.45;2.10;;;34.00;78.60;;;;;;5026951;28;20195;-72
2022/06/28 10:20:26;;;;;;;2.10;1.90;;;35.00;74.00;;;;;;5024289;28;20600;-70
2022/06/28 10:23:12;;;;;;;2.10;1.73;;;35.40;70.60;;;;;;5023007;28;20185;-69
2022/06/28 10:25:38;;;;;;;4.25;2.05;;;35.10;68.60;;;;;;5026340;28;20188;-71
2022/06/28 10:28:34;;;;;;;2.00;1.90;;;34.80;72.40;;;;;;5047328;28;20716;-70
2022/06/28 10:31:25;;;;;;;2.58;2.10;;;34.80;73.40;;;;;;5026701;28;20228;-72
2022/06/28 10:33:56;;;;;;;1.98;1.73;;;34.50;67.80;;;;;;5028743;28;20207;-71
2022/06/28 10:36:25;;;;;;;2.65;2.00;;;35.20;69.40;;;;;;5025496;28;20184;-71
2022/06/28 10:39:09;;;;;;;1.92;1.73;;;35.90;67.80;;;;;;5024554;28;20258;-72
2022/06/28 10:41:42;;;;;;;2.03;1.77;;;35.40;63.60;;;;;;5024166;28;20679;-71
2022/06/28 10:44:19;;;;;;;1.92;1.83;;;35.60;64.50;;;;;;5024955;28;20222;-71
2022/06/28 10:47:05;;;;;;;1.75;1.70;;;35.80;61.40;;;;;;5031710;28;20168;-72
2022/06/28 10:49:46;;;;;;;4.88;1.80;;;34.90;61.50;;;;;;5030352;28;20176;-71
2022/06/28 10:52:19;;;;;;;1.83;1.70;;;35.00;64.70;;;;;;5035983;28;20214;-72
2022/06/28 10:54:57;;;;;;;1.90;1.80;;;34.60;63.80;;;;;;5031995;28;20299;-73
2022/06/28 10:57:24;;;;;;;2.28;2.17;;;33.60;65.60;;;;;;5031064;28;20218;-72
2022/06/28 10:59:51;;;;;;;3.70;2.75;;;32.30;70.50;;;;;;5023994;28;20229;-71
2022/06/28 11:02:18;;;;;;;3.28;2.63;;;31.40;74.80;;;;;;5020084;28;20268;-72
2022/06/28 11:04:45;;;;;;;3.60;2.50;;;31.00;73.40;;;;;;5028552;28;20608;-71
2022/06/28 11:07:19;;;;;;;2.45;2.20;;;31.10;76.20;;;;;;5035165;28;20709;-72
2022/06/28 11:10:04;;;;;;;2.70;2.13;;;31.00;74.90;;;;;;5033975;28;20552;-73
2022/06/28 11:12:30;;;;;;;3.65;2.53;;;30.70;73.60;;;;;;5018462;28;20259;-72
2022/06/28 11:14:59;;;;;;;2.42;2.33;;;30.10;77.10;;;;;;5013627;28;20683;-73
2022/06/28 11:17:28;;;;;;;2.20;2.10;;;29.70;82.80;;;;;;5013561;28;20306;-72
2022/06/28 11:19:57;;;;;;;2.45;2.33;;;29.40;80.30;;;;;;5013589;28;20520;-72
2022/06/28 11:22:28;;;;;;;3.28;2.33;;;29.40;81.60;;;;;;5017808;28;20184;-73
2022/06/28 11:24:56;;;;;;;2.47;2.20;;;29.40;80.40;;;;;;5016998;28;20209;-72
2022/06/28 11:27:23;;;;;;;3.97;2.53;;;29.40;83.20;;;;;;5013370;28;20223;-72
2022/06/28 11:30:00;;;;;;;2.63;2.53;;;29.70;77.40;;;;;;5020258;28;20180;-72
2022/06/28 11:32:31;;;;;;;3.10;2.80;;;30.10;78.00;;;;;;5020750;28;20230;-71
2022/06/28 11:35:07;;;;;;;2.13;2.03;;;31.30;74.40;;;;;;5031938;28;20203;-70
2022/06/28 11:37:46;;;;;;;3.33;2.30;;;32.90;71.40;;;;;;5040298;28;20182;-71
2022/06/28 11:40:12;;;;;;;2.40;2.30;;;34.20;65.40;;;;;;5036866;28;20183;-70
2022/06/28 11:42:37;;;;;;;2.30;2.10;;;35.50;63.20;;;;;;5040429;28;20238;-70
2022/06/28 11:45:04;;;;;;;2.03;1.85;;;36.10;59.30;;;;;;5019079;28;20277;-71
2022/06/28 11:47:29;;;;;;;2.03;1.90;;;36.90;58.80;;;;;;5026667;28;20551;-71
2022/06/28 11:50:09;;;;;;;2.30;2.20;;;37.30;57.30;;;;;;5026422;28;20226;-72
2022/06/28 11:52:43;;;;;;;2.58;2.38;;;37.30;55.80;;;;;;5023420;28;20172;-72
2022/06/28 11:55:09;;;;;;;1.95;1.85;;;37.80;55.80;;;;;;5033732;28;20175;-70
2022/06/28 11:57:35;;;;;;;2.72;2.03;;;38.50;56.20;;;;;;5029217;28;20185;-70
2022/06/28 12:00:03;;;;;;;2.03;1.92;;;38.50;55.90;;;;;;5030343;28;20188;-71
2022/06/28 12:02:47;;;;;;;2.30;2.20;;;38.50;56.70;;;;;;5030968;28;20215;-71
2022/06/28 12:05:14;;;;;;;3.17;1.92;;;38.00;55.80;;;;;;5032154;28;20735;-71
2022/06/28 12:07:43;;;;;;;2.20;1.83;;;38.60;57.60;;;;;;5018991;28;20678;-71
2022/06/28 12:10:32;;;;;;;1.83;1.73;;;38.60;54.60;;;;;;5036701;28;20673;-71
2022/06/28 12:13:08;;;;;;;2.63;2.17;;;38.20;54.80;;;;;;5042207;28;20207;-71
2022/06/28 12:15:34;;;;;;;2.63;2.20;;;37.10;56.30;;;;;;5035311;28;20175;-71
2022/06/28 12:18:03;;;;;;;2.40;2.20;;;35.20;58.80;;;;;;5032267;28;20531;-70
2022/06/28 12:20:30;;;;;;;1.95;1.85;;;34.70;60.70;;;;;;5028600;28;20191;-71
2022/06/28 12:22:57;;;;;;;2.08;1.98;;;33.20;64.10;;;;;;5026513;28;20225;-71
2022/06/28 12:25:23;;;;;;;2.33;1.90;;;32.80;66.20;;;;;;5040692;28;20180;-69
2022/06/28 12:27:49;;;;;;;3.65;2.40;;;32.20;66.80;;;;;;5025329;28;20219;-70
2022/06/28 12:30:14;;;;;;;3.15;2.85;;;32.70;68.40;;;;;;5042569;28;20188;-70
2022/06/28 12:32:40;;;;;;;2.35;1.95;;;33.10;65.60;;;;;;5031548;28;20303;-69
2022/06/28 12:35:08;;;;;;;2.42;2.00;;;33.30;64.50;;;;;;5017737;28;20230;-72
2022/06/28 12:37:34;;;;;;;2.17;2.08;;;33.50;63.70;;;;;;5020578;28;20184;-70
2022/06/28 12:40:01;;;;;;;2.10;2.05;;;33.70;64.00;;;;;;5037091;28;20194;-70
2022/06/28 12:42:27;;;;;;;2.03;1.80;;;33.70;62.20;;;;;;5024663;28;20227;-70
2022/06/28 12:45:00;;;;;;;2.28;2.03;;;33.50;64.20;;;;;;5023964;28;20308;-70
2022/06/28 12:47:30;;;;;;;2.30;1.75;;;33.70;62.30;;;;;;5018201;28;20204;-70
2022/06/28 12:49:56;;;;;;;2.20;2.00;;;34.10;62.80;;;;;;5030303;28;20184;-70
2022/06/28 12:52:22;;;;;;;1.90;1.80;;;34.20;61.90;;;;;;5019348;28;20263;-70
2022/06/28 12:54:48;;;;;;;2.03;1.92;;;34.80;62.20;;;;;;5017733;28;20227;-71
2022/06/28 12:57:13;;;;;;;1.95;1.85;;;35.40;59.70;;;;;;5016635;28;20653;-70
2022/06/28 12:59:40;;;;;;;2.58;2.05;;;36.30;57.40;;;;;;5019229;28;20184;-71